sensor_id;sensor_type;location;lat;lon;timestamp;P1;durP1;ratioP1;P2;durP2;ratioP2
53245;SDS011;39569;51.090;-1.786;2023-04-01T00:01:36;11.00;;;4.40;;
53245;SDS011;39569;51.090;-1.786;2023-04-01T00:04:03;7.78;;;4.18;;
53245;SDS011;39569;51.090;-1.786;2023-04-01T00:06:31;6.13;;;1.90;;
53245;SDS011;39569;51.090;-1.786;2023-04-01T00:08:57;11.40;;;5.10;;
53245;SDS011;39569;51.090;-1.786;2023-04-01T00:11:24;14.50;;;4.22;;
53245;SDS011;39569;51.090;-1.786;2023-04-01T00:13:52;10.25;;;4.45;;
53245;SDS011;39569;51.090;-1.786;2023-04-01T00:16:19;14.23;;;2.40;;
53245;SDS011;39569;51.090;-1.786;2023-04-01T00:18:45;6.60;;;2.20;;
53245;SDS011;39569;51.090;-1.786;2023-04-01T00:21:13;12.10;;;5.32;;
53245;SDS011;39569;51.090;-1.786;2023-04-01T00:23:41;14.75;;;5.15;;
53245;SDS011;39569;51.090;-1.786;2023-04-01T00:26:08;9.85;;;4.22;;
53245;SDS011;39569;51.090;-1.786;2023-04-01T00:28:37;7.45;;;3.88;;
53245;SDS011;39569;51.090;-1.786;2023-04-01T00:31:04;2.80;;;1.50;;
53245;SDS011;39569;51.090;-1.786;2023-04-01T00:33:31;12.95;;;6.03;;
53245;SDS011;39569;51.090;-1.786;2023-04-01T00:36:05;9.27;;;5.03;;
53245;SDS011;39569;51.090;-1.786;2023-04-01T00:38:33;4.13;;;2.25;;
53245;SDS011;39569;51.090;-1.786;2023-04-01T00:41:01;15.38;;;4.40;;
53245;SDS011;39569;51.090;-1.786;2023-04-01T00:43:28;19.67;;;5.80;;
53245;SDS011;39569;51.090;-1.786;2023-04-01T00:45:55;13.30;;;5.80;;
53245;SDS011;39569;51.090;-1.786;2023-04-01T00:48:23;13.65;;;4.47;;
53245;SDS011;39569;51.090;-1.786;2023-04-01T00:50:54;3.95;;;1.77;;
53245;SDS011;39569;51.090;-1.786;2023-04-01T00:53:24;14.13;;;5.68;;
53245;SDS011;39569;51.090;-1.786;2023-04-01T00:55:53;10.48;;;6.45;;
53245;SDS011;39569;51.090;-1.786;2023-04-01T00:58:24;14.88;;;5.53;;
53245;SDS011;39569;51.090;-1.786;2023-04-01T01:00:53;10.98;;;5.40;;
53245;SDS011;39569;51.090;-1.786;2023-04-01T01:03:21;16.70;;;5.75;;
53245;SDS011;39569;51.090;-1.786;2023-04-01T01:09:03;5.57;;;2.97;;
53245;SDS011;39569;51.090;-1.786;2023-04-01T01:14:09;4.03;;;2.40;;
53245;SDS011;39569;51.090;-1.786;2023-04-01T01:16:45;8.68;;;1.60;;
53245;SDS011;39569;51.090;-1.786;2023-04-01T01:19:23;5.32;;;2.78;;
53245;SDS011;39569;51.090;-1.786;2023-04-01T01:22:07;14.48;;;6.22;;
53245;SDS011;39569;51.090;-1.786;2023-04-01T01:25:05;13.65;;;6.28;;
53245;SDS011;39569;51.090;-1.786;2023-04-01T01:27:43;9.10;;;5.03;;
53245;SDS011;39569;51.090;-1.786;2023-04-01T01:30:24;4.25;;;0.98;;
53245;SDS011;39569;51.090;-1.786;2023-04-01T01:33:01;38.78;;;5.38;;
53245;SDS011;39569;51.090;-1.786;2023-04-01T01:35:41;1.38;;;1.13;;
53245;SDS011;39569;51.090;-1.786;2023-04-01T01:38:14;7.95;;;7.38;;
53245;SDS011;39569;51.090;-1.786;2023-04-01T01:40:43;19.65;;;4.32;;
53245;SDS011;39569;51.090;-1.786;2023-04-01T01:43:13;8.00;;;4.78;;
53245;SDS011;39569;51.090;-1.786;2023-04-01T01:45:44;13.60;;;4.63;;
53245;SDS011;39569;51.090;-1.786;2023-04-01T01:48:14;13.25;;;5.97;;
53245;SDS011;39569;51.090;-1.786;2023-04-01T01:50:44;8.40;;;4.55;;
53245;SDS011;39569;51.090;-1.786;2023-04-01T01:53:13;11.68;;;4.97;;
53245;SDS011;39569;51.090;-1.786;2023-04-01T01:55:41;17.17;;;6.07;;
53245;SDS011;39569;51.090;-1.786;2023-04-01T01:58:10;10.85;;;4.43;;
53245;SDS011;39569;51.090;-1.786;2023-04-01T02:00:41;4.25;;;3.20;;
53245;SDS011;39569;51.090;-1.786;2023-04-01T02:03:12;15.50;;;5.00;;
53245;SDS011;39569;51.090;-1.786;2023-04-01T02:05:41;2.00;;;1.88;;
53245;SDS011;39569;51.090;-1.786;2023-04-01T02:08:11;17.75;;;6.93;;
53245;SDS011;39569;51.090;-1.786;2023-04-01T02:10:42;20.15;;;5.53;;
53245;SDS011;39569;51.090;-1.786;2023-04-01T02:13:15;5.53;;;2.58;;
53245;SDS011;39569;51.090;-1.786;2023-04-01T02:15:47;14.57;;;6.72;;
53245;SDS011;39569;51.090;-1.786;2023-04-01T02:18:16;12.50;;;5.50;;
53245;SDS011;39569;51.090;-1.786;2023-04-01T02:20:45;18.98;;;6.65;;
53245;SDS011;39569;51.090;-1.786;2023-04-01T02:23:13;5.70;;;3.83;;
53245;SDS011;39569;51.090;-1.786;2023-04-01T02:25:41;16.02;;;4.75;;
53245;SDS011;39569;51.090;-1.786;2023-04-01T02:28:09;11.00;;;5.43;;
53245;SDS011;39569;51.090;-1.786;2023-04-01T02:30:38;9.70;;;3.60;;
53245;SDS011;39569;51.090;-1.786;2023-04-01T02:33:07;12.07;;;4.45;;
53245;SDS011;39569;51.090;-1.786;2023-04-01T02:35:35;12.55;;;4.68;;
53245;SDS011;39569;51.090;-1.786;2023-04-01T02:38:02;5.28;;;2.38;;
53245;SDS011;39569;51.090;-1.786;2023-04-01T02:40:34;1.85;;;1.73;;
53245;SDS011;39569;51.090;-1.786;2023-04-01T02:43:08;2.40;;;2.00;;
53245;SDS011;39569;51.090;-1.786;2023-04-01T02:45:35;5.43;;;3.10;;
53245;SDS011;39569;51.090;-1.786;2023-04-01T02:48:02;1.75;;;1.15;;
53245;SDS011;39569;51.090;-1.786;2023-04-01T02:50:29;4.38;;;1.75;;
53245;SDS011;39569;51.090;-1.786;2023-04-01T02:52:56;11.23;;;1.77;;
53245;SDS011;39569;51.090;-1.786;2023-04-01T02:55:22;6.53;;;1.17;;
53245;SDS011;39569;51.090;-1.786;2023-04-01T02:57:50;10.60;;;3.95;;
53245;SDS011;39569;51.090;-1.786;2023-04-01T03:00:17;10.43;;;3.28;;
53245;SDS011;39569;51.090;-1.786;2023-04-01T03:02:44;7.72;;;3.35;;
53245;SDS011;39569;51.090;-1.786;2023-04-01T03:05:11;13.57;;;4.18;;
53245;SDS011;39569;51.090;-1.786;2023-04-01T03:07:37;4.80;;;1.33;;
53245;SDS011;39569;51.090;-1.786;2023-04-01T03:10:05;5.10;;;1.52;;
53245;SDS011;39569;51.090;-1.786;2023-04-01T03:12:32;3.20;;;1.35;;
53245;SDS011;39569;51.090;-1.786;2023-04-01T03:15:00;5.93;;;2.17;;
53245;SDS011;39569;51.090;-1.786;2023-04-01T03:17:27;4.97;;;3.60;;
53245;SDS011;39569;51.090;-1.786;2023-04-01T03:19:54;7.47;;;3.97;;
53245;SDS011;39569;51.090;-1.786;2023-04-01T03:22:20;10.07;;;4.22;;
53245;SDS011;39569;51.090;-1.786;2023-04-01T03:24:47;14.93;;;4.65;;
53245;SDS011;39569;51.090;-1.786;2023-04-01T03:27:14;9.77;;;3.65;;
53245;SDS011;39569;51.090;-1.786;2023-04-01T03:29:41;13.68;;;5.47;;
53245;SDS011;39569;51.090;-1.786;2023-04-01T03:32:09;9.18;;;2.47;;
53245;SDS011;39569;51.090;-1.786;2023-04-01T03:34:36;10.38;;;2.30;;
53245;SDS011;39569;51.090;-1.786;2023-04-01T03:37:03;14.50;;;5.80;;
53245;SDS011;39569;51.090;-1.786;2023-04-01T03:39:30;21.95;;;5.38;;
53245;SDS011;39569;51.090;-1.786;2023-04-01T03:41:57;11.18;;;4.57;;
53245;SDS011;39569;51.090;-1.786;2023-04-01T03:44:23;11.68;;;5.13;;
53245;SDS011;39569;51.090;-1.786;2023-04-01T03:46:50;4.53;;;1.85;;
53245;SDS011;39569;51.090;-1.786;2023-04-01T03:49:18;6.95;;;2.25;;
53245;SDS011;39569;51.090;-1.786;2023-04-01T03:51:45;4.03;;;1.55;;
53245;SDS011;39569;51.090;-1.786;2023-04-01T03:54:12;11.63;;;2.92;;
53245;SDS011;39569;51.090;-1.786;2023-04-01T03:56:38;11.45;;;5.15;;
53245;SDS011;39569;51.090;-1.786;2023-04-01T03:59:06;10.43;;;2.47;;
53245;SDS011;39569;51.090;-1.786;2023-04-01T04:01:33;18.10;;;6.03;;
53245;SDS011;39569;51.090;-1.786;2023-04-01T04:04:01;6.50;;;3.05;;
53245;SDS011;39569;51.090;-1.786;2023-04-01T04:06:30;22.20;;;5.85;;
53245;SDS011;39569;51.090;-1.786;2023-04-01T04:08:57;19.60;;;2.65;;
53245;SDS011;39569;51.090;-1.786;2023-04-01T04:11:23;7.38;;;1.83;;
53245;SDS011;39569;51.090;-1.786;2023-04-01T04:13:50;14.18;;;4.53;;
53245;SDS011;39569;51.090;-1.786;2023-04-01T04:16:18;16.67;;;5.20;;
53245;SDS011;39569;51.090;-1.786;2023-04-01T04:18:44;15.57;;;5.45;;
53245;SDS011;39569;51.090;-1.786;2023-04-01T04:21:12;10.88;;;4.63;;
53245;SDS011;39569;51.090;-1.786;2023-04-01T04:23:41;3.35;;;1.95;;
53245;SDS011;39569;51.090;-1.786;2023-04-01T04:26:09;3.53;;;2.70;;
53245;SDS011;39569;51.090;-1.786;2023-04-01T04:28:37;1.52;;;1.40;;
53245;SDS011;39569;51.090;-1.786;2023-04-01T04:31:04;14.18;;;1.50;;
53245;SDS011;39569;51.090;-1.786;2023-04-01T04:33:31;11.95;;;5.10;;
53245;SDS011;39569;51.090;-1.786;2023-04-01T04:35:59;9.02;;;3.53;;
53245;SDS011;39569;51.090;-1.786;2023-04-01T04:38:26;7.38;;;4.05;;
53245;SDS011;39569;51.090;-1.786;2023-04-01T04:40:54;11.48;;;5.40;;
53245;SDS011;39569;51.090;-1.786;2023-04-01T04:43:21;12.10;;;5.65;;
53245;SDS011;39569;51.090;-1.786;2023-04-01T04:45:48;3.58;;;2.15;;
53245;SDS011;39569;51.090;-1.786;2023-04-01T04:48:15;3.85;;;3.20;;
53245;SDS011;39569;51.090;-1.786;2023-04-01T04:50:45;10.18;;;2.53;;
53245;SDS011;39569;51.090;-1.786;2023-04-01T04:53:12;5.60;;;2.75;;
53245;SDS011;39569;51.090;-1.786;2023-04-01T04:55:42;13.10;;;3.20;;
53245;SDS011;39569;51.090;-1.786;2023-04-01T04:58:10;5.03;;;2.17;;
53245;SDS011;39569;51.090;-1.786;2023-04-01T05:00:37;13.90;;;4.57;;
53245;SDS011;39569;51.090;-1.786;2023-04-01T05:03:04;14.63;;;5.82;;
53245;SDS011;39569;51.090;-1.786;2023-04-01T05:05:31;11.75;;;4.68;;
53245;SDS011;39569;51.090;-1.786;2023-04-01T05:07:58;2.53;;;1.50;;
53245;SDS011;39569;51.090;-1.786;2023-04-01T05:10:24;2.72;;;2.50;;
53245;SDS011;39569;51.090;-1.786;2023-04-01T05:12:51;2.05;;;1.80;;
53245;SDS011;39569;51.090;-1.786;2023-04-01T05:15:19;3.22;;;1.85;;
53245;SDS011;39569;51.090;-1.786;2023-04-01T05:17:46;1.65;;;1.52;;
53245;SDS011;39569;51.090;-1.786;2023-04-01T05:20:13;13.98;;;6.18;;
53245;SDS011;39569;51.090;-1.786;2023-04-01T05:22:41;13.75;;;5.78;;
53245;SDS011;39569;51.090;-1.786;2023-04-01T05:25:08;9.52;;;4.15;;
53245;SDS011;39569;51.090;-1.786;2023-04-01T05:27:35;3.20;;;1.95;;
53245;SDS011;39569;51.090;-1.786;2023-04-01T05:30:02;8.98;;;2.58;;
53245;SDS011;39569;51.090;-1.786;2023-04-01T05:32:32;7.28;;;2.85;;
53245;SDS011;39569;51.090;-1.786;2023-04-01T05:34:58;4.18;;;1.10;;
53245;SDS011;39569;51.090;-1.786;2023-04-01T05:37:25;7.10;;;1.80;;
53245;SDS011;39569;51.090;-1.786;2023-04-01T05:39:52;6.13;;;1.58;;
53245;SDS011;39569;51.090;-1.786;2023-04-01T05:42:19;9.23;;;4.57;;
53245;SDS011;39569;51.090;-1.786;2023-04-01T05:44:45;19.88;;;4.93;;
53245;SDS011;39569;51.090;-1.786;2023-04-01T05:47:12;7.95;;;4.25;;
53245;SDS011;39569;51.090;-1.786;2023-04-01T05:49:40;2.50;;;2.22;;
53245;SDS011;39569;51.090;-1.786;2023-04-01T05:52:07;2.42;;;1.73;;
53245;SDS011;39569;51.090;-1.786;2023-04-01T05:54:34;11.60;;;5.07;;
53245;SDS011;39569;51.090;-1.786;2023-04-01T05:57:01;3.60;;;2.13;;
53245;SDS011;39569;51.090;-1.786;2023-04-01T05:59:28;4.95;;;2.30;;
53245;SDS011;39569;51.090;-1.786;2023-04-01T06:01:56;10.68;;;5.10;;
53245;SDS011;39569;51.090;-1.786;2023-04-01T06:04:23;8.70;;;5.00;;
53245;SDS011;39569;51.090;-1.786;2023-04-01T06:06:51;13.48;;;5.38;;
53245;SDS011;39569;51.090;-1.786;2023-04-01T06:09:19;6.90;;;3.05;;
53245;SDS011;39569;51.090;-1.786;2023-04-01T06:14:50;6.72;;;3.42;;
53245;SDS011;39569;51.090;-1.786;2023-04-01T06:17:25;10.38;;;5.22;;
53245;SDS011;39569;51.090;-1.786;2023-04-01T06:19:57;17.75;;;5.97;;
53245;SDS011;39569;51.090;-1.786;2023-04-01T06:22:40;11.80;;;5.78;;
53245;SDS011;39569;51.090;-1.786;2023-04-01T06:25:27;14.07;;;6.07;;
53245;SDS011;39569;51.090;-1.786;2023-04-01T06:28:07;6.60;;;3.10;;
53245;SDS011;39569;51.090;-1.786;2023-04-01T06:30:57;6.32;;;3.08;;
53245;SDS011;39569;51.090;-1.786;2023-04-01T06:33:42;14.18;;;5.63;;
53245;SDS011;39569;51.090;-1.786;2023-04-01T06:36:25;21.70;;;4.43;;
53245;SDS011;39569;51.090;-1.786;2023-04-01T06:39:09;12.25;;;5.25;;
53245;SDS011;39569;51.090;-1.786;2023-04-01T06:42:00;6.57;;;4.82;;
53245;SDS011;39569;51.090;-1.786;2023-04-01T06:47:19;2.80;;;2.58;;
53245;SDS011;39569;51.090;-1.786;2023-04-01T06:49:56;9.05;;;2.70;;
53245;SDS011;39569;51.090;-1.786;2023-04-01T06:52:36;5.28;;;2.33;;
53245;SDS011;39569;51.090;-1.786;2023-04-01T06:55:17;20.35;;;3.85;;
53245;SDS011;39569;51.090;-1.786;2023-04-01T06:57:52;13.10;;;5.50;;
53245;SDS011;39569;51.090;-1.786;2023-04-01T07:00:22;10.73;;;5.72;;
53245;SDS011;39569;51.090;-1.786;2023-04-01T07:02:58;9.82;;;5.70;;
53245;SDS011;39569;51.090;-1.786;2023-04-01T07:05:32;17.13;;;7.47;;
53245;SDS011;39569;51.090;-1.786;2023-04-01T07:08:01;8.27;;;2.97;;
53245;SDS011;39569;51.090;-1.786;2023-04-01T07:10:35;11.10;;;3.17;;
53245;SDS011;39569;51.090;-1.786;2023-04-01T07:13:12;6.95;;;3.10;;
53245;SDS011;39569;51.090;-1.786;2023-04-01T07:15:42;8.00;;;5.57;;
53245;SDS011;39569;51.090;-1.786;2023-04-01T07:18:22;13.95;;;7.63;;
53245;SDS011;39569;51.090;-1.786;2023-04-01T07:20:54;19.98;;;6.53;;
53245;SDS011;39569;51.090;-1.786;2023-04-01T07:23:23;15.57;;;6.20;;
53245;SDS011;39569;51.090;-1.786;2023-04-01T07:25:55;20.42;;;7.68;;
53245;SDS011;39569;51.090;-1.786;2023-04-01T07:28:26;15.77;;;8.05;;
53245;SDS011;39569;51.090;-1.786;2023-04-01T07:30:58;24.75;;;3.33;;
53245;SDS011;39569;51.090;-1.786;2023-04-01T07:33:39;9.32;;;4.10;;
53245;SDS011;39569;51.090;-1.786;2023-04-01T07:36:12;16.15;;;4.10;;
53245;SDS011;39569;51.090;-1.786;2023-04-01T07:43:56;9.60;;;3.17;;
53245;SDS011;39569;51.090;-1.786;2023-04-01T07:46:51;12.93;;;3.17;;
53245;SDS011;39569;51.090;-1.786;2023-04-01T07:49:27;16.27;;;4.07;;
53245;SDS011;39569;51.090;-1.786;2023-04-01T07:52:01;15.70;;;7.45;;
53245;SDS011;39569;51.090;-1.786;2023-04-01T07:54:37;13.45;;;8.00;;
53245;SDS011;39569;51.090;-1.786;2023-04-01T07:57:12;10.85;;;5.18;;
53245;SDS011;39569;51.090;-1.786;2023-04-01T07:59:47;8.63;;;3.97;;
53245;SDS011;39569;51.090;-1.786;2023-04-01T08:02:27;19.50;;;8.25;;
53245;SDS011;39569;51.090;-1.786;2023-04-01T08:05:08;13.07;;;7.28;;
53245;SDS011;39569;51.090;-1.786;2023-04-01T08:07:45;7.43;;;3.25;;
53245;SDS011;39569;51.090;-1.786;2023-04-01T08:10:21;11.18;;;6.53;;
53245;SDS011;39569;51.090;-1.786;2023-04-01T08:12:58;8.65;;;5.93;;
53245;SDS011;39569;51.090;-1.786;2023-04-01T08:15:32;10.25;;;5.45;;
53245;SDS011;39569;51.090;-1.786;2023-04-01T08:18:09;2.38;;;2.22;;
53245;SDS011;39569;51.090;-1.786;2023-04-01T08:20:45;13.52;;;5.25;;
53245;SDS011;39569;51.090;-1.786;2023-04-01T08:23:15;4.70;;;2.42;;
53245;SDS011;39569;51.090;-1.786;2023-04-01T08:25:47;3.65;;;3.30;;
53245;SDS011;39569;51.090;-1.786;2023-04-01T08:28:21;6.97;;;4.95;;
53245;SDS011;39569;51.090;-1.786;2023-04-01T08:30:52;8.45;;;5.07;;
53245;SDS011;39569;51.090;-1.786;2023-04-01T08:33:25;10.95;;;5.20;;
53245;SDS011;39569;51.090;-1.786;2023-04-01T08:35:54;7.68;;;5.93;;
53245;SDS011;39569;51.090;-1.786;2023-04-01T08:38:27;9.10;;;4.68;;
53245;SDS011;39569;51.090;-1.786;2023-04-01T08:41:00;7.32;;;4.65;;
53245;SDS011;39569;51.090;-1.786;2023-04-01T08:46:50;6.20;;;2.40;;
53245;SDS011;39569;51.090;-1.786;2023-04-01T08:49:27;13.05;;;4.90;;
53245;SDS011;39569;51.090;-1.786;2023-04-01T08:52:21;3.67;;;3.22;;
53245;SDS011;39569;51.090;-1.786;2023-04-01T08:55:13;7.72;;;4.03;;
53245;SDS011;39569;51.090;-1.786;2023-04-01T08:57:56;17.52;;;5.47;;
53245;SDS011;39569;51.090;-1.786;2023-04-01T09:00:38;5.85;;;4.68;;
53245;SDS011;39569;51.090;-1.786;2023-04-01T09:06:36;1.80;;;1.70;;
53245;SDS011;39569;51.090;-1.786;2023-04-01T09:09:21;6.32;;;2.92;;
53245;SDS011;39569;51.090;-1.786;2023-04-01T09:12:15;2.72;;;2.35;;
53245;SDS011;39569;51.090;-1.786;2023-04-01T09:15:07;3.92;;;2.95;;
53245;SDS011;39569;51.090;-1.786;2023-04-01T09:23:32;5.43;;;4.03;;
53245;SDS011;39569;51.090;-1.786;2023-04-01T09:26:19;7.32;;;3.80;;
53245;SDS011;39569;51.090;-1.786;2023-04-01T09:28:59;11.88;;;4.43;;
53245;SDS011;39569;51.090;-1.786;2023-04-01T09:31:42;8.00;;;3.85;;
53245;SDS011;39569;51.090;-1.786;2023-04-01T09:34:25;11.25;;;4.50;;
53245;SDS011;39569;51.090;-1.786;2023-04-01T09:37:17;5.68;;;3.30;;
53245;SDS011;39569;51.090;-1.786;2023-04-01T09:39:50;6.30;;;3.15;;
53245;SDS011;39569;51.090;-1.786;2023-04-01T09:45:29;4.38;;;1.63;;
53245;SDS011;39569;51.090;-1.786;2023-04-01T09:48:09;5.70;;;4.15;;
53245;SDS011;39569;51.090;-1.786;2023-04-01T09:50:47;3.78;;;1.35;;
53245;SDS011;39569;51.090;-1.786;2023-04-01T09:53:30;2.10;;;2.00;;
53245;SDS011;39569;51.090;-1.786;2023-04-01T10:14:43;1.42;;;1.33;;
53245;SDS011;39569;51.090;-1.786;2023-04-01T10:17:41;4.85;;;2.60;;
53245;SDS011;39569;51.090;-1.786;2023-04-01T10:20:40;2.72;;;2.05;;
53245;SDS011;39569;51.090;-1.786;2023-04-01T10:26:35;2.85;;;2.53;;
53245;SDS011;39569;51.090;-1.786;2023-04-01T10:29:24;3.65;;;2.70;;
53245;SDS011;39569;51.090;-1.786;2023-04-01T10:35:44;1.65;;;1.52;;
53245;SDS011;39569;51.090;-1.786;2023-04-01T10:45:23;4.13;;;1.70;;
53245;SDS011;39569;51.090;-1.786;2023-04-01T10:48:40;1.15;;;1.15;;
53245;SDS011;39569;51.090;-1.786;2023-04-01T10:51:31;1.65;;;1.55;;
53245;SDS011;39569;51.090;-1.786;2023-04-01T10:54:45;1.33;;;1.33;;
53245;SDS011;39569;51.090;-1.786;2023-04-01T10:57:23;0.70;;;0.70;;
53245;SDS011;39569;51.090;-1.786;2023-04-01T11:00:43;0.65;;;0.65;;
53245;SDS011;39569;51.090;-1.786;2023-04-01T11:03:55;2.38;;;1.10;;
53245;SDS011;39569;51.090;-1.786;2023-04-01T11:07:09;1.20;;;1.15;;
53245;SDS011;39569;51.090;-1.786;2023-04-01T11:13:12;1.70;;;1.60;;
53245;SDS011;39569;51.090;-1.786;2023-04-01T11:19:11;5.18;;;4.70;;
53245;SDS011;39569;51.090;-1.786;2023-04-01T11:25:04;6.18;;;5.65;;
53245;SDS011;39569;51.090;-1.786;2023-04-01T11:27:53;5.97;;;5.47;;
53245;SDS011;39569;51.090;-1.786;2023-04-01T11:30:49;5.18;;;4.78;;
53245;SDS011;39569;51.090;-1.786;2023-04-01T11:33:28;6.20;;;5.72;;
53245;SDS011;39569;51.090;-1.786;2023-04-01T11:36:14;6.82;;;6.00;;
53245;SDS011;39569;51.090;-1.786;2023-04-01T11:41:49;3.92;;;3.72;;
53245;SDS011;39569;51.090;-1.786;2023-04-01T11:44:23;4.55;;;4.15;;
53245;SDS011;39569;51.090;-1.786;2023-04-01T11:47:00;4.45;;;4.05;;
53245;SDS011;39569;51.090;-1.786;2023-04-01T11:49:51;3.42;;;3.22;;
53245;SDS011;39569;51.090;-1.786;2023-04-01T11:52:32;4.70;;;4.30;;
53245;SDS011;39569;51.090;-1.786;2023-04-01T11:55:23;4.05;;;3.75;;
53245;SDS011;39569;51.090;-1.786;2023-04-01T11:58:10;4.70;;;4.28;;
53245;SDS011;39569;51.090;-1.786;2023-04-01T12:00:58;3.50;;;3.25;;
53245;SDS011;39569;51.090;-1.786;2023-04-01T12:03:45;3.58;;;3.38;;
53245;SDS011;39569;51.090;-1.786;2023-04-01T12:06:34;4.30;;;4.05;;
53245;SDS011;39569;51.090;-1.786;2023-04-01T12:09:11;4.30;;;4.05;;
53245;SDS011;39569;51.090;-1.786;2023-04-01T12:11:44;4.63;;;4.32;;
53245;SDS011;39569;51.090;-1.786;2023-04-01T12:14:22;5.72;;;5.32;;
53245;SDS011;39569;51.090;-1.786;2023-04-01T12:16:59;3.95;;;3.33;;
53245;SDS011;39569;51.090;-1.786;2023-04-01T12:19:34;6.40;;;5.82;;
53245;SDS011;39569;51.090;-1.786;2023-04-01T12:22:22;10.77;;;6.68;;
53245;SDS011;39569;51.090;-1.786;2023-04-01T12:24:58;6.35;;;5.93;;
53245;SDS011;39569;51.090;-1.786;2023-04-01T12:27:41;7.05;;;6.45;;
53245;SDS011;39569;51.090;-1.786;2023-04-01T12:30:18;7.07;;;6.43;;
53245;SDS011;39569;51.090;-1.786;2023-04-01T12:33:00;5.68;;;5.28;;
53245;SDS011;39569;51.090;-1.786;2023-04-01T12:35:43;5.82;;;5.47;;
53245;SDS011;39569;51.090;-1.786;2023-04-01T12:38:21;3.75;;;3.55;;
53245;SDS011;39569;51.090;-1.786;2023-04-01T12:41:03;4.82;;;4.43;;
53245;SDS011;39569;51.090;-1.786;2023-04-01T12:43:51;5.35;;;4.95;;
53245;SDS011;39569;51.090;-1.786;2023-04-01T12:46:32;5.57;;;5.22;;
53245;SDS011;39569;51.090;-1.786;2023-04-01T12:49:24;6.75;;;6.25;;
53245;SDS011;39569;51.090;-1.786;2023-04-01T12:52:03;5.65;;;5.25;;
53245;SDS011;39569;51.090;-1.786;2023-04-01T13:04:15;13.05;;;11.55;;
53245;SDS011;39569;51.090;-1.786;2023-04-01T13:07:03;13.10;;;12.10;;
53245;SDS011;39569;51.090;-1.786;2023-04-01T13:09:45;11.82;;;10.65;;
53245;SDS011;39569;51.090;-1.786;2023-04-01T13:12:33;14.65;;;13.35;;
53245;SDS011;39569;51.090;-1.786;2023-04-01T13:15:13;11.67;;;10.53;;
53245;SDS011;39569;51.090;-1.786;2023-04-01T13:17:50;11.85;;;10.43;;
53245;SDS011;39569;51.090;-1.786;2023-04-01T13:20:28;9.90;;;9.10;;
53245;SDS011;39569;51.090;-1.786;2023-04-01T13:23:09;9.70;;;8.90;;
53245;SDS011;39569;51.090;-1.786;2023-04-01T13:25:45;11.18;;;10.02;;
53245;SDS011;39569;51.090;-1.786;2023-04-01T13:28:20;10.02;;;9.15;;
53245;SDS011;39569;51.090;-1.786;2023-04-01T13:30:53;6.97;;;6.47;;
53245;SDS011;39569;51.090;-1.786;2023-04-01T13:33:27;6.93;;;5.93;;
53245;SDS011;39569;51.090;-1.786;2023-04-01T13:36:06;8.98;;;8.15;;
53245;SDS011;39569;51.090;-1.786;2023-04-01T13:38:44;7.60;;;6.97;;
53245;SDS011;39569;51.090;-1.786;2023-04-01T13:41:20;10.13;;;6.38;;
53245;SDS011;39569;51.090;-1.786;2023-04-01T13:43:58;6.25;;;5.65;;
53245;SDS011;39569;51.090;-1.786;2023-04-01T13:46:41;4.50;;;4.18;;
53245;SDS011;39569;51.090;-1.786;2023-04-01T13:49:24;6.15;;;5.60;;
53245;SDS011;39569;51.090;-1.786;2023-04-01T13:54:51;6.93;;;5.57;;
53245;SDS011;39569;51.090;-1.786;2023-04-01T13:57:36;7.88;;;7.13;;
53245;SDS011;39569;51.090;-1.786;2023-04-01T14:00:20;6.90;;;6.40;;
53245;SDS011;39569;51.090;-1.786;2023-04-01T14:03:03;6.75;;;6.15;;
53245;SDS011;39569;51.090;-1.786;2023-04-01T14:05:52;6.65;;;6.10;;
53245;SDS011;39569;51.090;-1.786;2023-04-01T14:08:31;9.13;;;8.27;;
53245;SDS011;39569;51.090;-1.786;2023-04-01T14:11:10;12.43;;;11.38;;
53245;SDS011;39569;51.090;-1.786;2023-04-01T14:13:45;12.80;;;11.70;;
53245;SDS011;39569;51.090;-1.786;2023-04-01T14:19:24;14.98;;;13.30;;
53245;SDS011;39569;51.090;-1.786;2023-04-01T14:22:10;13.63;;;12.07;;
53245;SDS011;39569;51.090;-1.786;2023-04-01T14:25:03;13.18;;;12.02;;
53245;SDS011;39569;51.090;-1.786;2023-04-01T14:27:54;14.52;;;13.25;;
53245;SDS011;39569;51.090;-1.786;2023-04-01T14:30:35;15.75;;;13.73;;
53245;SDS011;39569;51.090;-1.786;2023-04-01T14:33:16;12.57;;;11.45;;
53245;SDS011;39569;51.090;-1.786;2023-04-01T14:35:55;14.40;;;13.13;;
53245;SDS011;39569;51.090;-1.786;2023-04-01T14:38:47;14.57;;;12.48;;
53245;SDS011;39569;51.090;-1.786;2023-04-01T14:41:28;14.93;;;13.65;;
53245;SDS011;39569;51.090;-1.786;2023-04-01T14:44:23;14.73;;;13.48;;
53245;SDS011;39569;51.090;-1.786;2023-04-01T14:47:08;12.98;;;11.98;;
53245;SDS011;39569;51.090;-1.786;2023-04-01T14:49:48;12.35;;;11.18;;
53245;SDS011;39569;51.090;-1.786;2023-04-01T14:52:24;14.55;;;13.15;;
53245;SDS011;39569;51.090;-1.786;2023-04-01T14:54:54;13.82;;;12.52;;
53245;SDS011;39569;51.090;-1.786;2023-04-01T14:57:23;12.30;;;10.93;;
53245;SDS011;39569;51.090;-1.786;2023-04-01T14:59:53;13.35;;;12.02;;
53245;SDS011;39569;51.090;-1.786;2023-04-01T15:05:23;8.25;;;7.50;;
53245;SDS011;39569;51.090;-1.786;2023-04-01T15:11:03;11.10;;;10.13;;
53245;SDS011;39569;51.090;-1.786;2023-04-01T15:13:57;9.80;;;8.98;;
53245;SDS011;39569;51.090;-1.786;2023-04-01T15:16:45;10.75;;;9.65;;
53245;SDS011;39569;51.090;-1.786;2023-04-01T15:19:24;11.18;;;9.85;;
53245;SDS011;39569;51.090;-1.786;2023-04-01T15:25:16;8.60;;;7.90;;
53245;SDS011;39569;51.090;-1.786;2023-04-01T15:27:55;9.45;;;7.72;;
53245;SDS011;39569;51.090;-1.786;2023-04-01T15:30:30;7.15;;;6.47;;
53245;SDS011;39569;51.090;-1.786;2023-04-01T15:33:07;7.50;;;6.35;;
53245;SDS011;39569;51.090;-1.786;2023-04-01T15:35:45;5.97;;;5.28;;
53245;SDS011;39569;51.090;-1.786;2023-04-01T15:38:21;7.25;;;5.72;;
53245;SDS011;39569;51.090;-1.786;2023-04-01T15:41:01;4.00;;;3.47;;
53245;SDS011;39569;51.090;-1.786;2023-04-01T15:43:37;5.63;;;3.05;;
53245;SDS011;39569;51.090;-1.786;2023-04-01T15:46:22;3.78;;;3.55;;
53245;SDS011;39569;51.090;-1.786;2023-04-01T15:49:04;3.75;;;3.17;;
53245;SDS011;39569;51.090;-1.786;2023-04-01T15:51:55;3.65;;;3.38;;
53245;SDS011;39569;51.090;-1.786;2023-04-01T15:54:32;4.75;;;3.72;;
53245;SDS011;39569;51.090;-1.786;2023-04-01T15:57:22;3.97;;;3.67;;
53245;SDS011;39569;51.090;-1.786;2023-04-01T16:02:54;3.80;;;3.50;;
53245;SDS011;39569;51.090;-1.786;2023-04-01T16:05:48;4.38;;;2.63;;
53245;SDS011;39569;51.090;-1.786;2023-04-01T16:08:40;2.40;;;2.20;;
53245;SDS011;39569;51.090;-1.786;2023-04-01T16:11:22;10.98;;;3.60;;
53245;SDS011;39569;51.090;-1.786;2023-04-01T16:13:59;5.80;;;2.63;;
53245;SDS011;39569;51.090;-1.786;2023-04-01T16:16:42;5.90;;;2.95;;
53245;SDS011;39569;51.090;-1.786;2023-04-01T16:19:26;3.58;;;3.15;;
53245;SDS011;39569;51.090;-1.786;2023-04-01T16:22:01;3.70;;;3.22;;
53245;SDS011;39569;51.090;-1.786;2023-04-01T16:24:33;6.75;;;3.60;;
53245;SDS011;39569;51.090;-1.786;2023-04-01T16:27:05;3.53;;;3.20;;
53245;SDS011;39569;51.090;-1.786;2023-04-01T16:29:43;4.32;;;3.95;;
53245;SDS011;39569;51.090;-1.786;2023-04-01T16:32:17;6.07;;;4.05;;
53245;SDS011;39569;51.090;-1.786;2023-04-01T16:34:54;1.70;;;1.60;;
53245;SDS011;39569;51.090;-1.786;2023-04-01T16:37:31;4.90;;;4.13;;
53245;SDS011;39569;51.090;-1.786;2023-04-01T16:40:09;4.80;;;3.90;;
53245;SDS011;39569;51.090;-1.786;2023-04-01T16:42:44;4.72;;;4.32;;
53245;SDS011;39569;51.090;-1.786;2023-04-01T16:45:19;10.00;;;4.30;;
53245;SDS011;39569;51.090;-1.786;2023-04-01T16:47:53;5.95;;;3.67;;
53245;SDS011;39569;51.090;-1.786;2023-04-01T16:50:23;6.18;;;4.07;;
53245;SDS011;39569;51.090;-1.786;2023-04-01T16:52:54;5.28;;;4.28;;
53245;SDS011;39569;51.090;-1.786;2023-04-01T16:55:33;4.15;;;3.85;;
53245;SDS011;39569;51.090;-1.786;2023-04-01T16:58:02;4.43;;;3.80;;
53245;SDS011;39569;51.090;-1.786;2023-04-01T17:00:36;5.85;;;4.43;;
53245;SDS011;39569;51.090;-1.786;2023-04-01T17:03:09;5.32;;;4.80;;